Wetterdaten: Freitag, 01.07.2011
Datum Zeit Temp. a Sch. Temp. a Son. Temp. a Bod. Feuchte a. Luftdruck Regen Wind Richtung Richtung Sonnenschein Helligkeit Taupunkt Windchill
01.07.2011 00:00 11,8 C 13,1 C 15,3 C 83 % 1022 hPa 0,0 l/m 0,0 m/s (0 Bft) W 270 0 min 0 lux 9,0 C 11,8 C
01.07.2011 00:15 11,8 C 13,1 C 15,2 C 82 % 1022 hPa 0,0 l/m 0,0 m/s (0 Bft) W 265 0 min 0 lux 8,8 C 11,8 C
01.07.2011 00:30 11,6 C 13,0 C 15,0 C 82 % 1022 hPa 0,0 l/m 0,0 m/s (0 Bft) W 270 0 min 0 lux 8,6 C 11,6 C
01.07.2011 00:45 11,7 C 12,9 C 15,0 C 83 % 1022 hPa 0,0 l/m 0,0 m/s (0 Bft) W 270 0 min 0 lux 8,9 C 11,7 C
01.07.2011 01:01 11,7 C 12,9 C 14,9 C 83 % 1022 hPa 0,0 l/m 1,3 m/s (1 Bft) W-SW45 245 0 min 0 lux 8,9 C 11,7 C
01.07.2011 01:16 12,0 C 13,0 C 14,8 C 82 % 1022 hPa 0,0 l/m 2,2 m/s (2 Bft) W22.5 280 0 min 0 lux 9,0 C 11,1 C
01.07.2011 01:31 11,7 C 12,9 C 14,7 C 85 % 1022 hPa 0,0 l/m 2,3 m/s (2 Bft) W-SW22.5 245 0 min 0 lux 9,3 C 10,5 C
01.07.2011 01:46 11,6 C 12,8 C 14,6 C 87 % 1022 hPa 0,0 l/m 2,0 m/s (2 Bft) W-SW45 250 0 min 0 lux 9,5 C 11,1 C
01.07.2011 02:01 11,6 C 12,7 C 14,4 C 85 % 1022 hPa 0,0 l/m 1,3 m/s (1 Bft) W-NW22.5 285 0 min 0 lux 9,2 C 11,6 C
01.07.2011 02:16 11,6 C 12,7 C 14,3 C 86 % 1022 hPa 0,4 l/m 1,8 m/s (2 Bft) W-NW45 290 0 min 0 lux 9,3 C 11,6 C
01.07.2011 02:31 11,4 C 12,6 C 14,1 C 87 % 1022 hPa 0,0 l/m 0,0 m/s (0 Bft) W 275 0 min 0 lux 9,3 C 11,4 C
01.07.2011 02:46 11,3 C 12,4 C 14,0 C 88 % 1022 hPa 0,4 l/m 0,0 m/s (0 Bft) W-NW 285 0 min 0 lux 9,4 C 11,3 C
01.07.2011 03:01 11,2 C 12,3 C 13,9 C 89 % 1022 hPa 0,0 l/m 0,0 m/s (0 Bft) W-NW22.5 285 0 min 0 lux 9,5 C 11,2 C
01.07.2011 03:16 11,2 C 12,3 C 13,9 C 88 % 1022 hPa 0,0 l/m 0,0 m/s (0 Bft) W 275 0 min 0 lux 9,3 C 11,2 C
01.07.2011 03:31 11,2 C 12,2 C 13,8 C 88 % 1021 hPa 0,0 l/m 0,0 m/s (0 Bft) W 280 0 min 0 lux 9,3 C 11,2 C
01.07.2011 03:46 11,1 C 12,2 C 13,7 C 90 % 1021 hPa 0,0 l/m 0,0 m/s (0 Bft) W-NW22.5 285 0 min 0 lux 9,5 C 11,1 C
01.07.2011 04:01 11,0 C 12,1 C 13,7 C 92 % 1021 hPa 0,0 l/m 0,3 m/s (0 Bft) W-SW22.5 255 0 min 0 lux 9,8 C 11,0 C
01.07.2011 04:16 11,0 C 12,0 C 13,5 C 93 % 1021 hPa 0,0 l/m 1,6 m/s (2 Bft) W22.5 265 0 min 0 lux 9,9 C 11,0 C
01.07.2011 04:31 11,0 C 12,0 C 13,4 C 92 % 1021 hPa 0,0 l/m 1,1 m/s (1 Bft) W22.5 275 0 min 0 lux 9,8 C 11,0 C
01.07.2011 04:46 10,8 C 11,8 C 13,4 C 93 % 1021 hPa 0,0 l/m 1,6 m/s (1 Bft) W22.5 260 0 min 0 lux 9,7 C 10,8 C
01.07.2011 05:01 10,8 C 11,8 C 13,3 C 93 % 1021 hPa 0,0 l/m 2,1 m/s (2 Bft) W-SW22.5 245 0 min 0 lux 9,7 C 10,1 C
01.07.2011 05:16 10,8 C 11,8 C 13,2 C 93 % 1021 hPa 0,0 l/m 0,2 m/s (0 Bft) W-SW 245 0 min 147 lux 9,7 C 10,8 C
01.07.2011 05:31 10,6 C 11,6 C 13,0 C 93 % 1021 hPa 0,0 l/m 1,8 m/s (2 Bft) W-SW22.5 240 0 min 480 lux 9,5 C 10,5 C
01.07.2011 05:46 10,5 C 11,4 C 12,8 C 93 % 1021 hPa 0,0 l/m 2,4 m/s (2 Bft) W45 260 0 min 1,38 klux 9,4 C 8,9 C
01.07.2011 06:01 10,4 C 11,2 C 12,7 C 92 % 1021 hPa 0,0 l/m 1,8 m/s (2 Bft) W22.5 280 0 min 2,62 klux 9,2 C 10,3 C
01.07.2011 06:16 10,5 C 11,1 C 12,7 C 92 % 1021 hPa 0,0 l/m 2,3 m/s (2 Bft) W22.5 270 0 min 4,34 klux 9,3 C 9,2 C
01.07.2011 06:31 10,8 C 11,3 C 12,8 C 93 % 1021 hPa 0,0 l/m 1,6 m/s (2 Bft) W-SW 255 0 min 4,44 klux 9,7 C 10,8 C
01.07.2011 06:46 10,8 C 11,3 C 12,9 C 93 % 1021 hPa 0,0 l/m 1,8 m/s (2 Bft) W-SW 250 0 min 6,63 klux 9,7 C 10,8 C
01.07.2011 07:01 10,8 C 11,3 C 12,7 C 93 % 1021 hPa 0,0 l/m 1,6 m/s (1 Bft) W-SW22.5 255 0 min 6,34 klux 9,7 C 10,8 C
01.07.2011 07:16 10,8 C 11,3 C 12,7 C 92 % 1021 hPa 0,0 l/m 0,8 m/s (1 Bft) W-SW 245 0 min 12,2 klux 9,6 C 10,8 C
01.07.2011 07:31 13,3 C 11,3 C 13,5 C 87 % 1021 hPa 0,0 l/m 2,2 m/s (2 Bft) W-SW22.5 245 15 min 28,0 klux 11,2 C 12,3 C
01.07.2011 07:46 15,0 C 11,6 C 14,2 C 78 % 1021 hPa 0,0 l/m 1,9 m/s (2 Bft) W-NW22.5 285 15 min 36,3 klux 11,2 C 14,8 C
01.07.2011 08:01 14,3 C 12,2 C 14,2 C 76 % 1021 hPa 0,0 l/m 1,9 m/s (2 Bft) W-SW22.5 250 0 min 29,4 klux 10,1 C 14,0 C
01.07.2011 08:16 14,8 C 12,7 C 14,5 C 71 % 1021 hPa 0,0 l/m 2,9 m/s (2 Bft) W45 260 15 min 49,8 klux 9,6 C 12,6 C
01.07.2011 08:31 15,0 C 13,1 C 15,3 C 72 % 1021 hPa 0,0 l/m 2,6 m/s (2 Bft) W-NW22.5 290 15 min 54,4 klux 10,0 C 13,3 C
01.07.2011 08:46 15,2 C 13,3 C 15,2 C 69 % 1021 hPa 0,0 l/m 3,5 m/s (3 Bft) W-NW45 285 15 min 55,1 klux 9,6 C 12,3 C
01.07.2011 09:01 13,2 C 13,3 C 15,0 C 75 % 1022 hPa 0,0 l/m 3,6 m/s (3 Bft) W45 270 0 min 19,8 klux 8,9 C 9,8 C
01.07.2011 09:16 14,4 C 13,6 C 16,3 C 71 % 1021 hPa 0,0 l/m 2,8 m/s (2 Bft) W-NW67.5 290 15 min 68,4 klux 9,2 C 12,4 C
01.07.2011 09:31 15,2 C 14,4 C 17,0 C 67 % 1021 hPa 0,0 l/m 5,1 m/s (3 Bft) NW45 325 15 min 79,0 klux 9,1 C 10,4 C
01.07.2011 09:46 15,0 C 14,8 C 16,9 C 62 % 1021 hPa 0,0 l/m 6,8 m/s (4 Bft) NW22.5 320 15 min 79,9 klux 7,8 C 8,7 C
01.07.2011 10:01 15,5 C 15,6 C 17,7 C 64 % 1021 hPa 0,0 l/m 7,5 m/s (4 Bft) N-NW22.5 330 15 min 79,8 klux 8,7 C 8,9 C
01.07.2011 10:16 12,8 C 14,7 C 16,7 C 71 % 1022 hPa 0,0 l/m 8,1 m/s (5 Bft) NW45 320 0 min 21,6 klux 7,7 C 4,7 C
01.07.2011 10:31 11,8 C 13,5 C 16,5 C 77 % 1022 hPa 0,0 l/m 6,0 m/s (4 Bft) W-NW67.5 300 0 min 26,9 klux 7,9 C 5,2 C
01.07.2011 10:46 11,8 C 13,1 C 16,5 C 78 % 1022 hPa 0,0 l/m 6,5 m/s (4 Bft) NW45 320 0 min 39,5 klux 8,1 C 4,6 C
01.07.2011 11:01 12,2 C 13,3 C 16,5 C 76 % 1022 hPa 0,0 l/m 5,6 m/s (4 Bft) W-NW45 295 0 min 38,5 klux 8,1 C 6,1 C
01.07.2011 11:16 11,7 C 13,2 C 15,8 C 80 % 1022 hPa 0,4 l/m 4,1 m/s (3 Bft) W-NW67.5 295 0 min 27,0 klux 8,4 C 7,3 C
01.07.2011 11:31 11,6 C 12,9 C 16,1 C 81 % 1022 hPa 0,0 l/m 4,1 m/s (3 Bft) NW45 310 0 min 24,3 klux 8,5 C 7,1 C
01.07.2011 11:46 12,4 C 13,4 C 16,1 C 77 % 1022 hPa 0,0 l/m 5,4 m/s (3 Bft) NW45 305 0 min 48,6 klux 8,5 C 6,5 C
01.07.2011 12:01 13,9 C 15,1 C 17,1 C 75 % 1022 hPa 0,0 l/m 6,1 m/s (4 Bft) W-NW45 290 15 min 109 klux 9,5 C 7,8 C
01.07.2011 12:16 14,4 C 16,1 C 17,2 C 72 % 1022 hPa 0,0 l/m 5,6 m/s (4 Bft) NW45 320 15 min 109 klux 9,4 C 8,9 C
01.07.2011 12:31 15,4 C 17,7 C 18,0 C 68 % 1022 hPa 0,0 l/m 3,7 m/s (3 Bft) W-NW67.5 295 0 min 49,5 klux 9,5 C 12,3 C
01.07.2011 12:46 14,6 C 17,1 C 18,5 C 68 % 1022 hPa 0,0 l/m 6,3 m/s (4 Bft) NW45 305 0 min 52,0 klux 8,8 C 8,6 C
01.07.2011 13:01 15,9 C 18,2 C 19,3 C 65 % 1021 hPa 0,0 l/m 4,8 m/s (3 Bft) NW67.5 305 15 min 115 klux 9,3 C 11,6 C
01.07.2011 13:16 15,2 C 17,4 C 18,8 C 62 % 1021 hPa 0,0 l/m 7,1 m/s (4 Bft) NW22.5 320 0 min 53,5 klux 8,0 C 8,7 C
01.07.2011 13:31 16,5 C 18,5 C 19,9 C 63 % 1021 hPa 0,0 l/m 6,1 m/s (4 Bft) NW45 315 15 min 117 klux 9,4 C 11,3 C
01.07.2011 13:46 15,8 C 18,3 C 19,2 C 61 % 1021 hPa 0,0 l/m 8,0 m/s (4 Bft) W-NW45 300 15 min 111 klux 8,3 C 9,0 C
01.07.2011 14:01 16,9 C 20,2 C 20,7 C 58 % 1021 hPa 0,0 l/m 6,4 m/s (4 Bft) NW45 315 15 min 107 klux 8,6 C 11,5 C
01.07.2011 14:16 17,2 C 21,1 C 22,0 C 58 % 1021 hPa 0,0 l/m 7,4 m/s (4 Bft) NW22.5 325 15 min 98,2 klux 8,9 C 11,3 C
01.07.2011 14:31 17,7 C 22,2 C 22,9 C 55 % 1021 hPa 0,0 l/m 8,1 m/s (5 Bft) NW45 320 15 min 103 klux 8,5 C 11,6 C
01.07.2011 14:46 17,5 C 21,5 C 23,1 C 58 % 1021 hPa 0,0 l/m 7,4 m/s (4 Bft) N-NW22.5 330 15 min 104 klux 9,1 C 11,7 C
01.07.2011 15:01 18,2 C 22,2 C 23,5 C 56 % 1021 hPa 0,0 l/m 8,2 m/s (5 Bft) NW45 315 15 min 105 klux 9,3 C 12,2 C
01.07.2011 15:16 17,4 C 19,9 C 22,0 C 53 % 1021 hPa 0,0 l/m 5,8 m/s (4 Bft) W-NW67.5 295 0 min 38,3 klux 7,7 C 12,6 C
01.07.2011 15:31 17,6 C 19,2 C 22,0 C 49 % 1021 hPa 0,0 l/m 7,8 m/s (4 Bft) N-NW45 330 15 min 105 klux 6,8 C 11,6 C
01.07.2011 15:46 18,5 C 21,4 C 22,1 C 45 % 1021 hPa 0,0 l/m 8,9 m/s (5 Bft) NW45 325 15 min 104 klux 6,3 C 12,4 C
01.07.2011 16:01 17,9 C 20,7 C 21,7 C 48 % 1021 hPa 0,0 l/m 5,6 m/s (4 Bft) NW67.5 315 15 min 68,9 klux 6,7 C 13,5 C
01.07.2011 16:15 17,1 C 20,3 C 21,5 C 53 % 1021 hPa 0,0 l/m 7,4 m/s (4 Bft) W-NW67.5 300 0 min 54,6 klux 7,4 C 11,2 C
01.07.2011 16:30 17,4 C 22,6 C 20,9 C 55 % 1021 hPa 0,0 l/m 7,8 m/s (4 Bft) W-NW45 295 15 min 91,2 klux 8,3 C 11,3 C
01.07.2011 16:45 17,3 C 23,5 C 21,7 C 50 % 1021 hPa 0,0 l/m 8,1 m/s (5 Bft) NW22.5 315 15 min 82,3 klux 6,8 C 11,0 C
01.07.2011 17:00 17,4 C 23,9 C 21,7 C 54 % 1021 hPa 0,0 l/m 9,4 m/s (5 Bft) NW45 325 15 min 76,6 klux 8,0 C 10,6 C
01.07.2011 17:15 17,7 C 24,0 C 22,5 C 56 % 1021 hPa 0,0 l/m 8,4 m/s (5 Bft) NW67.5 310 15 min 73,0 klux 8,8 C 11,4 C
01.07.2011 17:30 17,6 C 23,9 C 22,5 C 53 % 1020 hPa 0,0 l/m 7,7 m/s (4 Bft) NW45 305 15 min 67,8 klux 7,9 C 11,7 C
01.07.2011 17:45 17,3 C 24,2 C 22,6 C 54 % 1020 hPa 0,0 l/m 8,3 m/s (5 Bft) NW22.5 315 15 min 64,3 klux 7,9 C 11,0 C
01.07.2011 18:00 16,2 C 21,2 C 22,0 C 57 % 1020 hPa 0,0 l/m 6,9 m/s (4 Bft) NW45 320 15 min 50,3 klux 7,7 C 10,2 C
01.07.2011 18:15 15,3 C 19,1 C 21,2 C 60 % 1020 hPa 0,0 l/m 7,2 m/s (4 Bft) NW45 320 0 min 11,6 klux 7,6 C 8,9 C
01.07.2011 18:30 14,2 C 17,2 C 20,0 C 69 % 1020 hPa 0,0 l/m 8,6 m/s (5 Bft) NW45 325 0 min 14,5 klux 8,6 C 6,4 C
01.07.2011 18:45 14,7 C 18,5 C 19,9 C 70 % 1020 hPa 0,4 l/m 3,8 m/s (3 Bft) NW22.5 320 15 min 53,7 klux 9,3 C 11,3 C
01.07.2011 19:00 14,6 C 18,6 C 19,2 C 67 % 1020 hPa 0,0 l/m 2,1 m/s (2 Bft) W45 260 15 min 47,3 klux 8,5 C 13,9 C
01.07.2011 19:15 14,2 C 17,4 C 18,5 C 68 % 1020 hPa 0,0 l/m 3,3 m/s (2 Bft) W-NW45 285 15 min 30,6 klux 8,4 C 11,4 C
01.07.2011 19:30 17,7 C 18,9 C 18,3 C 60 % 1020 hPa 0,0 l/m 7,8 m/s (4 Bft) W-NW45 295 15 min 33,6 klux 9,8 C 11,8 C
01.07.2011 19:45 18,8 C 18,9 C 17,7 C 52 % 1020 hPa 0,0 l/m 6,9 m/s (4 Bft) NW45 310 15 min 33,4 klux 8,7 C 13,8 C
01.07.2011 20:00 18,7 C 19,1 C 17,4 C 49 % 1020 hPa 0,0 l/m 8,1 m/s (5 Bft) W-NW45 295 15 min 30,7 klux 7,8 C 13,0 C
01.07.2011 20:16 18,9 C 18,9 C 17,1 C 48 % 1020 hPa 0,0 l/m 3,1 m/s (2 Bft) W-NW45 290 16 min 26,4 klux 7,6 C 17,0 C
01.07.2011 20:31 17,8 C 17,6 C 16,7 C 52 % 1020 hPa 0,0 l/m 5,0 m/s (3 Bft) NW22.5 320 15 min 20,7 klux 7,8 C 13,8 C
01.07.2011 20:46 17,8 C 16,7 C 16,7 C 55 % 1020 hPa 0,0 l/m 4,8 m/s (3 Bft) NW22.5 315 15 min 17,6 klux 8,6 C 14,0 C
01.07.2011 21:01 15,0 C 15,9 C 16,4 C 61 % 1020 hPa 0,0 l/m 2,5 m/s (2 Bft) W45 270 15 min 12,3 klux 7,5 C 13,6 C
01.07.2011 21:16 13,5 C 15,0 C 15,9 C 66 % 1020 hPa 0,0 l/m 1,8 m/s (2 Bft) W22.5 260 15 min 4,31 klux 7,3 C 13,4 C
01.07.2011 21:31 12,8 C 14,2 C 15,6 C 68 % 1020 hPa 0,0 l/m 0,0 m/s (0 Bft) W-SW 255 0 min 2,34 klux 7,0 C 12,8 C
01.07.2011 21:46 12,3 C 13,8 C 15,4 C 72 % 1020 hPa 0,0 l/m 0,0 m/s (0 Bft) W-NW45 285 0 min 1,08 klux 7,4 C 12,3 C
01.07.2011 22:01 12,1 C 13,4 C 15,1 C 72 % 1020 hPa 0,0 l/m 0,0 m/s (0 Bft) NW 305 0 min 349 lux 7,2 C 12,1 C
01.07.2011 22:16 11,9 C 13,2 C 14,9 C 74 % 1020 hPa 0,0 l/m 0,0 m/s (0 Bft) NW22.5 310 0 min 116 lux 7,4 C 11,9 C
01.07.2011 22:31 11,4 C 12,8 C 14,5 C 75 % 1020 hPa 0,0 l/m 0,0 m/s (0 Bft) W-NW 300 0 min 17 lux 7,1 C 11,4 C
01.07.2011 22:46 11,1 C 12,4 C 14,3 C 77 % 1020 hPa 0,0 l/m 0,0 m/s (0 Bft) W-NW22.5 300 0 min 0 lux 7,2 C 11,1 C
01.07.2011 23:01 11,1 C 12,1 C 14,2 C 79 % 1020 hPa 0,0 l/m 0,1 m/s (0 Bft) W-NW22.5 295 0 min 0 lux 7,6 C 11,1 C
01.07.2011 23:16 11,0 C 11,9 C 13,9 C 81 % 1020 hPa 0,0 l/m 1,7 m/s (2 Bft) W45 275 0 min 0 lux 7,9 C 11,0 C
01.07.2011 23:31 10,7 C 11,7 C 13,5 C 81 % 1020 hPa 0,0 l/m 1,6 m/s (2 Bft) W-NW45 285 0 min 0 lux 7,6 C 10,7 C
01.07.2011 23:46 10,1 C 11,3 C 13,3 C 81 % 1020 hPa 0,0 l/m 0,0 m/s (0 Bft) W 270 0 min 0 lux 7,0 C 10,1 C
_ Min-Zeit 23:46 06:16 06:01 15:46 17:30 - 00:00 - - - - 15:46 10:46
Minimum _ 10,1 C 11,1 C 12,7 C 45 % 1020 hPa - 0,0 m/s (0 Bft) - - - - 6,3 C 4,6 C
_ Max-Zeit 20:16 17:45 15:01 04:16 00:00 02:16 17:00 - - 20:16 13:31 07:46 20:16
Maximum _ 18,9 C 24,2 C 23,5 C 93 % 1022 hPa 0,4 l/m 9,4 m/s
NW (5 Bft)
- - 16 min 117 klux 11,2 C 17,0 C
Durchschnitt _ 13,8 C 15,4 C 16,7 C 73 % 1021 hPa #1,4 l/m 3,8 m/s (3 Bft) NW - #10:01 h 34,5 klux 8,7 C 11,0 C